sensor_id;sensor_type;location;lat;lon;timestamp;pressure;altitude;pressure_sealevel;temperature;humidity
3960;BME280;1994;48.640;8.894;2023-04-24T00:00:56;95162.38;;;11.13;90.97
3960;BME280;1994;48.640;8.894;2023-04-24T00:03:24;95175.84;;;11.15;90.85
3960;BME280;1994;48.640;8.894;2023-04-24T00:05:51;95185.72;;;11.18;90.74
3960;BME280;1994;48.640;8.894;2023-04-24T00:08:17;95193.47;;;11.13;89.69
3960;BME280;1994;48.640;8.894;2023-04-24T00:10:44;95177.38;;;11.16;89.02
3960;BME280;1994;48.640;8.894;2023-04-24T00:13:09;95170.16;;;11.28;87.80
3960;BME280;1994;48.640;8.894;2023-04-24T00:15:35;95167.28;;;11.29;87.43
3960;BME280;1994;48.640;8.894;2023-04-24T00:18:01;95174.56;;;11.37;86.63
3960;BME280;1994;48.640;8.894;2023-04-24T00:20:28;95182.31;;;11.32;87.60
3960;BME280;1994;48.640;8.894;2023-04-24T00:22:55;95186.72;;;11.42;87.06
3960;BME280;1994;48.640;8.894;2023-04-24T00:25:21;95182.84;;;11.29;87.46
3960;BME280;1994;48.640;8.894;2023-04-24T00:27:47;95185.44;;;11.44;86.60
3960;BME280;1994;48.640;8.894;2023-04-24T00:30:13;95172.75;;;11.33;87.17
3960;BME280;1994;48.640;8.894;2023-04-24T00:32:39;95172.75;;;11.23;87.44
3960;BME280;1994;48.640;8.894;2023-04-24T00:35:05;95164.97;;;11.33;87.48
3960;BME280;1994;48.640;8.894;2023-04-24T00:37:31;95168.56;;;11.37;87.15
3960;BME280;1994;48.640;8.894;2023-04-24T00:39:57;95164.19;;;11.27;87.73
3960;BME280;1994;48.640;8.894;2023-04-24T00:42:24;95157.16;;;11.43;87.54
3960;BME280;1994;48.640;8.894;2023-04-24T00:44:50;95160.03;;;11.31;88.19
3960;BME280;1994;48.640;8.894;2023-04-24T00:47:16;95161.84;;;11.26;88.82
3960;BME280;1994;48.640;8.894;2023-04-24T00:49:42;95159.25;;;11.31;88.89
3960;BME280;1994;48.640;8.894;2023-04-24T00:52:08;95157.94;;;11.33;88.71
3960;BME280;1994;48.640;8.894;2023-04-24T00:54:35;95153.03;;;11.27;88.93
3960;BME280;1994;48.640;8.894;2023-04-24T00:57:03;95153.56;;;11.34;88.75
3960;BME280;1994;48.640;8.894;2023-04-24T00:59:29;95143.69;;;11.31;89.24
3960;BME280;1994;48.640;8.894;2023-04-24T01:01:56;95148.38;;;11.29;89.14
3960;BME280;1994;48.640;8.894;2023-04-24T01:04:22;95143.19;;;11.34;89.29
3960;BME280;1994;48.640;8.894;2023-04-24T01:06:48;95144.22;;;11.28;89.92
3960;BME280;1994;48.640;8.894;2023-04-24T01:09:15;95139.06;;;11.28;90.50
3960;BME280;1994;48.640;8.894;2023-04-24T01:11:42;95141.09;;;11.31;90.14
3960;BME280;1994;48.640;8.894;2023-04-24T01:14:09;95142.16;;;11.20;91.38
3960;BME280;1994;48.640;8.894;2023-04-24T01:16:35;95139.06;;;11.28;91.32
3960;BME280;1994;48.640;8.894;2023-04-24T01:19:05;95140.59;;;11.29;90.80
3960;BME280;1994;48.640;8.894;2023-04-24T01:21:36;95132.56;;;11.20;91.60
3960;BME280;1994;48.640;8.894;2023-04-24T01:24:04;95136.97;;;11.10;92.19
3960;BME280;1994;48.640;8.894;2023-04-24T01:26:31;95141.66;;;11.13;92.36
3960;BME280;1994;48.640;8.894;2023-04-24T01:28:57;95143.69;;;11.16;92.30
3960;BME280;1994;48.640;8.894;2023-04-24T01:31:23;95147.34;;;11.20;92.58
3960;BME280;1994;48.640;8.894;2023-04-24T01:33:50;95137.25;;;11.03;93.71
3960;BME280;1994;48.640;8.894;2023-04-24T01:36:16;95129.72;;;10.92;95.56
3960;BME280;1994;48.640;8.894;2023-04-24T01:38:44;95134.38;;;10.85;96.13
3960;BME280;1994;48.640;8.894;2023-04-24T01:41:10;95135.41;;;10.94;96.08
3960;BME280;1994;48.640;8.894;2023-04-24T01:43:36;95126.34;;;10.96;96.06
3960;BME280;1994;48.640;8.894;2023-04-24T01:46:02;95132.81;;;10.89;96.37
3960;BME280;1994;48.640;8.894;2023-04-24T01:48:28;95138.00;;;10.94;95.88
3960;BME280;1994;48.640;8.894;2023-04-24T01:50:56;95132.31;;;10.97;96.01
3960;BME280;1994;48.640;8.894;2023-04-24T01:53:22;95119.34;;;10.82;96.39
3960;BME280;1994;48.640;8.894;2023-04-24T01:55:48;95115.22;;;10.76;97.30
3960;BME280;1994;48.640;8.894;2023-04-24T01:58:14;95121.94;;;10.77;97.88
3960;BME280;1994;48.640;8.894;2023-04-24T02:00:40;95119.34;;;10.92;97.03
3960;BME280;1994;48.640;8.894;2023-04-24T02:03:06;95117.28;;;10.79;97.15
3960;BME280;1994;48.640;8.894;2023-04-24T02:05:32;95124.00;;;10.65;97.76
3960;BME280;1994;48.640;8.894;2023-04-24T02:07:58;95122.97;;;10.71;97.87
3960;BME280;1994;48.640;8.894;2023-04-24T02:10:24;95120.91;;;10.83;96.95
3960;BME280;1994;48.640;8.894;2023-04-24T02:12:50;95132.03;;;10.73;97.97
3960;BME280;1994;48.640;8.894;2023-04-24T02:15:16;95132.81;;;10.74;97.97
3960;BME280;1994;48.640;8.894;2023-04-24T02:17:43;95126.34;;;10.71;98.04
3960;BME280;1994;48.640;8.894;2023-04-24T02:20:09;95127.91;;;10.77;98.00
3960;BME280;1994;48.640;8.894;2023-04-24T02:22:35;95126.59;;;10.70;98.95
3960;BME280;1994;48.640;8.894;2023-04-24T02:25:01;95133.31;;;10.71;98.79
3960;BME280;1994;48.640;8.894;2023-04-24T02:27:27;95130.75;;;10.76;98.57
3960;BME280;1994;48.640;8.894;2023-04-24T02:29:53;95128.66;;;10.83;97.98
3960;BME280;1994;48.640;8.894;2023-04-24T02:32:19;95117.81;;;10.86;97.87
3960;BME280;1994;48.640;8.894;2023-04-24T02:34:44;95125.03;;;10.89;97.15
3960;BME280;1994;48.640;8.894;2023-04-24T02:37:10;95115.72;;;10.83;97.26
3960;BME280;1994;48.640;8.894;2023-04-24T02:39:36;95124.50;;;10.72;97.29
3960;BME280;1994;48.640;8.894;2023-04-24T02:42:02;95127.63;;;10.69;97.28
3960;BME280;1994;48.640;8.894;2023-04-24T02:44:28;95124.03;;;10.80;97.06
3960;BME280;1994;48.640;8.894;2023-04-24T02:46:54;95124.50;;;10.72;97.46
3960;BME280;1994;48.640;8.894;2023-04-24T02:49:19;95131.50;;;10.86;97.13
3960;BME280;1994;48.640;8.894;2023-04-24T02:51:45;95132.81;;;10.74;97.90
3960;BME280;1994;48.640;8.894;2023-04-24T02:54:11;95131.78;;;10.70;98.58
3960;BME280;1994;48.640;8.894;2023-04-24T02:56:37;95145.50;;;10.65;99.71
3960;BME280;1994;48.640;8.894;2023-04-24T02:59:03;95125.53;;;10.61;99.82
3960;BME280;1994;48.640;8.894;2023-04-24T03:01:29;95114.69;;;10.69;99.89
3960;BME280;1994;48.640;8.894;2023-04-24T03:03:55;95121.91;;;10.67;99.61
3960;BME280;1994;48.640;8.894;2023-04-24T03:06:21;95123.97;;;10.50;100.00
3960;BME280;1994;48.640;8.894;2023-04-24T03:08:47;95112.06;;;10.54;100.00
3960;BME280;1994;48.640;8.894;2023-04-24T03:11:13;95108.44;;;10.55;100.00
3960;BME280;1994;48.640;8.894;2023-04-24T03:13:38;95111.03;;;10.60;100.00
3960;BME280;1994;48.640;8.894;2023-04-24T03:16:04;95119.84;;;10.49;100.00
3960;BME280;1994;48.640;8.894;2023-04-24T03:18:31;95115.47;;;10.59;100.00
3960;BME280;1994;48.640;8.894;2023-04-24T03:20:57;95118.31;;;10.58;99.97
3960;BME280;1994;48.640;8.894;2023-04-24T03:23:22;95107.16;;;10.57;100.00
3960;BME280;1994;48.640;8.894;2023-04-24T03:25:48;95109.47;;;10.54;100.00
3960;BME280;1994;48.640;8.894;2023-04-24T03:28:17;95106.88;;;10.49;100.00
3960;BME280;1994;48.640;8.894;2023-04-24T03:30:43;95102.72;;;10.38;100.00
3960;BME280;1994;48.640;8.894;2023-04-24T03:33:08;95098.06;;;10.40;100.00
3960;BME280;1994;48.640;8.894;2023-04-24T03:35:35;95105.81;;;10.40;100.00
3960;BME280;1994;48.640;8.894;2023-04-24T03:38:01;95091.88;;;10.41;99.96
3960;BME280;1994;48.640;8.894;2023-04-24T03:40:27;95102.22;;;10.36;99.78
3960;BME280;1994;48.640;8.894;2023-04-24T03:42:54;95099.09;;;10.24;100.00
3960;BME280;1994;48.640;8.894;2023-04-24T03:45:21;95101.94;;;10.22;100.00
3960;BME280;1994;48.640;8.894;2023-04-24T03:47:46;95106.06;;;10.23;100.00
3960;BME280;1994;48.640;8.894;2023-04-24T03:50:12;95105.78;;;10.10;100.00
3960;BME280;1994;48.640;8.894;2023-04-24T03:52:38;95113.81;;;10.18;100.00
3960;BME280;1994;48.640;8.894;2023-04-24T03:55:04;95106.56;;;10.10;100.00
3960;BME280;1994;48.640;8.894;2023-04-24T03:57:31;95116.16;;;10.20;100.00
3960;BME280;1994;48.640;8.894;2023-04-24T03:59:57;95114.03;;;10.12;100.00
3960;BME280;1994;48.640;8.894;2023-04-24T04:02:23;95123.66;;;10.21;99.97
3960;BME280;1994;48.640;8.894;2023-04-24T04:04:49;95120.78;;;10.18;100.00
3960;BME280;1994;48.640;8.894;2023-04-24T04:07:18;95129.09;;;10.25;100.00
3960;BME280;1994;48.640;8.894;2023-04-24T04:09:43;95138.94;;;10.28;99.27
3960;BME280;1994;48.640;8.894;2023-04-24T04:12:09;95135.59;;;10.27;99.85
3960;BME280;1994;48.640;8.894;2023-04-24T04:14:35;95144.09;;;10.28;99.70
3960;BME280;1994;48.640;8.894;2023-04-24T04:17:01;95138.69;;;10.34;100.00
3960;BME280;1994;48.640;8.894;2023-04-24T04:19:26;95142.59;;;10.37;99.78
3960;BME280;1994;48.640;8.894;2023-04-24T04:21:52;95167.47;;;10.48;99.78
3960;BME280;1994;48.640;8.894;2023-04-24T04:24:21;95184.06;;;10.57;99.22
3960;BME280;1994;48.640;8.894;2023-04-24T04:26:48;95185.59;;;10.43;95.38
3960;BME280;1994;48.640;8.894;2023-04-24T04:29:17;95192.81;;;10.36;92.88
3960;BME280;1994;48.640;8.894;2023-04-24T04:31:48;95193.28;;;10.28;90.63
3960;BME280;1994;48.640;8.894;2023-04-24T04:34:13;95188.91;;;10.33;90.29
3960;BME280;1994;48.640;8.894;2023-04-24T04:36:41;95182.16;;;10.27;89.66
3960;BME280;1994;48.640;8.894;2023-04-24T04:39:06;95189.66;;;10.24;90.10
3960;BME280;1994;48.640;8.894;2023-04-24T04:41:33;95185.78;;;10.21;90.01
3960;BME280;1994;48.640;8.894;2023-04-24T04:44:01;95189.91;;;10.22;88.55
3960;BME280;1994;48.640;8.894;2023-04-24T04:46:30;95195.09;;;10.22;88.68
3960;BME280;1994;48.640;8.894;2023-04-24T04:48:59;95195.81;;;10.18;88.84
3960;BME280;1994;48.640;8.894;2023-04-24T04:51:28;95205.41;;;10.17;89.21
3960;BME280;1994;48.640;8.894;2023-04-24T04:53:53;95203.06;;;10.16;89.82
3960;BME280;1994;48.640;8.894;2023-04-24T04:56:22;95216.00;;;10.11;89.69
3960;BME280;1994;48.640;8.894;2023-04-24T04:58:48;95213.44;;;10.16;89.20
3960;BME280;1994;48.640;8.894;2023-04-24T05:01:13;95218.59;;;10.16;90.62
3960;BME280;1994;48.640;8.894;2023-04-24T05:03:39;95219.13;;;10.18;89.49
3960;BME280;1994;48.640;8.894;2023-04-24T05:06:06;95222.00;;;10.21;89.64
3960;BME280;1994;48.640;8.894;2023-04-24T05:08:31;95225.91;;;10.24;90.08
3960;BME280;1994;48.640;8.894;2023-04-24T05:10:57;95226.88;;;10.18;90.76
3960;BME280;1994;48.640;8.894;2023-04-24T05:13:23;95235.69;;;10.17;91.09
3960;BME280;1994;48.640;8.894;2023-04-24T05:15:49;95240.22;;;10.00;90.97
3960;BME280;1994;48.640;8.894;2023-04-24T05:18:15;95251.56;;;9.94;91.26
3960;BME280;1994;48.640;8.894;2023-04-24T05:20:42;95254.41;;;9.92;91.66
3960;BME280;1994;48.640;8.894;2023-04-24T05:23:09;95248.94;;;9.89;92.01
3960;BME280;1994;48.640;8.894;2023-04-24T05:25:35;95250.09;;;10.03;91.45
3960;BME280;1994;48.640;8.894;2023-04-24T05:28:02;95257.19;;;10.17;91.87
3960;BME280;1994;48.640;8.894;2023-04-24T05:30:28;95257.44;;;10.21;90.64
3960;BME280;1994;48.640;8.894;2023-04-24T05:32:54;95264.53;;;9.99;90.49
3960;BME280;1994;48.640;8.894;2023-04-24T05:35:20;95261.91;;;9.94;91.04
3960;BME280;1994;48.640;8.894;2023-04-24T05:37:45;95266.88;;;10.00;91.52
3960;BME280;1994;48.640;8.894;2023-04-24T05:40:11;95266.88;;;10.00;90.68
3960;BME280;1994;48.640;8.894;2023-04-24T05:42:37;95263.50;;;10.00;90.03
3960;BME280;1994;48.640;8.894;2023-04-24T05:45:04;95273.81;;;9.95;89.73
3960;BME280;1994;48.640;8.894;2023-04-24T05:47:30;95277.53;;;10.04;89.95
3960;BME280;1994;48.640;8.894;2023-04-24T05:49:55;95274.38;;;10.02;89.03
3960;BME280;1994;48.640;8.894;2023-04-24T05:52:21;95275.94;;;10.03;88.55
3960;BME280;1994;48.640;8.894;2023-04-24T05:54:47;95271.84;;;10.07;88.43
3960;BME280;1994;48.640;8.894;2023-04-24T05:57:13;95290.34;;;9.89;87.64
3960;BME280;1994;48.640;8.894;2023-04-24T05:59:40;95292.47;;;9.97;88.09
3960;BME280;1994;48.640;8.894;2023-04-24T06:02:06;95288.84;;;9.98;87.23
3960;BME280;1994;48.640;8.894;2023-04-24T06:04:33;95293.19;;;10.24;86.20
3960;BME280;1994;48.640;8.894;2023-04-24T06:06:59;95293.31;;;10.54;88.15
3960;BME280;1994;48.640;8.894;2023-04-24T06:09:26;95299.06;;;10.66;86.56
3960;BME280;1994;48.640;8.894;2023-04-24T06:11:52;95302.00;;;10.89;85.94
3960;BME280;1994;48.640;8.894;2023-04-24T06:14:19;95304.84;;;10.93;84.41
3960;BME280;1994;48.640;8.894;2023-04-24T06:16:45;95306.16;;;10.95;83.63
3960;BME280;1994;48.640;8.894;2023-04-24T06:19:14;95301.25;;;10.99;82.69
3960;BME280;1994;48.640;8.894;2023-04-24T06:21:39;95298.72;;;11.24;82.98
3960;BME280;1994;48.640;8.894;2023-04-24T06:24:05;95296.16;;;11.39;83.33
3960;BME280;1994;48.640;8.894;2023-04-24T06:26:31;95286.34;;;11.66;81.96
3960;BME280;1994;48.640;8.894;2023-04-24T06:28:57;95299.78;;;11.58;81.71
3960;BME280;1994;48.640;8.894;2023-04-24T06:31:24;95279.31;;;11.96;84.59
3960;BME280;1994;48.640;8.894;2023-04-24T06:33:50;95293.53;;;12.24;82.19
3960;BME280;1994;48.640;8.894;2023-04-24T06:36:19;95288.06;;;12.30;80.40
3960;BME280;1994;48.640;8.894;2023-04-24T06:38:48;95290.88;;;12.49;78.46
3960;BME280;1994;48.640;8.894;2023-04-24T06:41:14;95298.13;;;12.47;78.59
3960;BME280;1994;48.640;8.894;2023-04-24T06:43:40;95297.97;;;12.23;80.05
3960;BME280;1994;48.640;8.894;2023-04-24T06:46:07;95296.63;;;12.36;80.07
3960;BME280;1994;48.640;8.894;2023-04-24T06:48:32;95298.25;;;12.02;80.59
3960;BME280;1994;48.640;8.894;2023-04-24T06:50:58;95299.28;;;11.81;80.99
3960;BME280;1994;48.640;8.894;2023-04-24T06:53:24;95305.03;;;11.78;80.07
3960;BME280;1994;48.640;8.894;2023-04-24T06:55:50;95314.34;;;11.74;80.63
3960;BME280;1994;48.640;8.894;2023-04-24T06:58:16;95314.84;;;11.71;77.42
3960;BME280;1994;48.640;8.894;2023-04-24T07:00:42;95324.16;;;11.47;79.88
3960;BME280;1994;48.640;8.894;2023-04-24T07:03:07;95321.53;;;11.27;79.57
3960;BME280;1994;48.640;8.894;2023-04-24T07:05:33;95336.50;;;11.05;81.56
3960;BME280;1994;48.640;8.894;2023-04-24T07:08:01;95341.41;;;11.01;83.80
3960;BME280;1994;48.640;8.894;2023-04-24T07:10:28;95329.72;;;10.89;83.14
3960;BME280;1994;48.640;8.894;2023-04-24T07:12:55;95332.34;;;10.99;84.14
3960;BME280;1994;48.640;8.894;2023-04-24T07:15:22;95325.69;;;11.28;84.09
3960;BME280;1994;48.640;8.894;2023-04-24T07:17:49;95332.50;;;11.64;80.71
3960;BME280;1994;48.640;8.894;2023-04-24T07:20:15;95325.25;;;11.81;79.56
3960;BME280;1994;48.640;8.894;2023-04-24T07:22:41;95325.25;;;12.01;79.93
3960;BME280;1994;48.640;8.894;2023-04-24T07:25:07;95329.63;;;12.25;79.40
3960;BME280;1994;48.640;8.894;2023-04-24T07:27:34;95351.19;;;12.21;77.25
3960;BME280;1994;48.640;8.894;2023-04-24T07:30:02;95352.72;;;12.42;78.32
3960;BME280;1994;48.640;8.894;2023-04-24T07:32:29;95350.91;;;12.27;77.45
3960;BME280;1994;48.640;8.894;2023-04-24T07:34:55;95351.69;;;12.23;77.19
3960;BME280;1994;48.640;8.894;2023-04-24T07:37:22;95355.84;;;12.34;75.85
3960;BME280;1994;48.640;8.894;2023-04-24T07:39:48;95355.34;;;12.17;77.49
3960;BME280;1994;48.640;8.894;2023-04-24T07:42:14;95358.97;;;12.26;77.04
3960;BME280;1994;48.640;8.894;2023-04-24T07:44:40;95359.47;;;12.43;76.63
3960;BME280;1994;48.640;8.894;2023-04-24T07:47:06;95365.16;;;12.60;75.89
3960;BME280;1994;48.640;8.894;2023-04-24T07:49:31;95365.72;;;11.87;76.13
3960;BME280;1994;48.640;8.894;2023-04-24T07:51:59;95370.84;;;11.57;76.47
3960;BME280;1994;48.640;8.894;2023-04-24T07:54:27;95381.03;;;11.63;76.48
3960;BME280;1994;48.640;8.894;2023-04-24T07:56:54;95382.84;;;11.78;76.11
3960;BME280;1994;48.640;8.894;2023-04-24T07:59:19;95375.09;;;11.93;74.48
3960;BME280;1994;48.640;8.894;2023-04-24T08:01:45;95383.38;;;11.85;74.04
3960;BME280;1994;48.640;8.894;2023-04-24T08:04:11;95374.81;;;11.79;72.98
3960;BME280;1994;48.640;8.894;2023-04-24T08:06:37;95382.03;;;11.57;72.58
3960;BME280;1994;48.640;8.894;2023-04-24T08:09:03;95392.16;;;11.64;70.42
3960;BME280;1994;48.640;8.894;2023-04-24T08:11:29;95387.53;;;11.91;70.58
3960;BME280;1994;48.640;8.894;2023-04-24T08:13:55;95388.28;;;12.36;68.47
3960;BME280;1994;48.640;8.894;2023-04-24T08:16:20;95389.50;;;12.79;66.34
3960;BME280;1994;48.640;8.894;2023-04-24T08:18:46;95392.38;;;12.77;67.47
3960;BME280;1994;48.640;8.894;2023-04-24T08:21:15;95400.78;;;12.29;69.04
3960;BME280;1994;48.640;8.894;2023-04-24T08:23:44;95403.78;;;12.81;68.44
3960;BME280;1994;48.640;8.894;2023-04-24T08:26:12;95401.97;;;13.02;66.86
3960;BME280;1994;48.640;8.894;2023-04-24T08:28:38;95398.75;;;13.25;65.29
3960;BME280;1994;48.640;8.894;2023-04-24T08:31:04;95409.66;;;13.22;64.73
3960;BME280;1994;48.640;8.894;2023-04-24T08:33:30;95414.13;;;13.16;65.54
3960;BME280;1994;48.640;8.894;2023-04-24T08:36:04;95430.47;;;13.22;64.62
3960;BME280;1994;48.640;8.894;2023-04-24T08:38:30;95427.00;;;12.33;65.13
3960;BME280;1994;48.640;8.894;2023-04-24T08:40:59;95420.69;;;11.59;68.91
3960;BME280;1994;48.640;8.894;2023-04-24T08:43:26;95422.84;;;12.07;69.06
3960;BME280;1994;48.640;8.894;2023-04-24T08:45:53;95429.06;;;12.51;66.17
3960;BME280;1994;48.640;8.894;2023-04-24T08:48:22;95425.16;;;13.52;63.41
3960;BME280;1994;48.640;8.894;2023-04-24T08:50:50;95427.13;;;14.47;59.56
3960;BME280;1994;48.640;8.894;2023-04-24T08:53:17;95422.63;;;14.81;57.20
3960;BME280;1994;48.640;8.894;2023-04-24T08:55:43;95425.28;;;14.76;55.78
3960;BME280;1994;48.640;8.894;2023-04-24T08:58:12;95434.09;;;15.32;55.81
3960;BME280;1994;48.640;8.894;2023-04-24T09:00:39;95434.03;;;15.97;54.18
3960;BME280;1994;48.640;8.894;2023-04-24T09:03:06;95437.69;;;15.78;52.43
3960;BME280;1994;48.640;8.894;2023-04-24T09:05:33;95437.75;;;15.31;52.91
3960;BME280;1994;48.640;8.894;2023-04-24T09:07:59;95433.75;;;15.99;51.38
3960;BME280;1994;48.640;8.894;2023-04-24T09:10:27;95436.56;;;16.21;50.18
3960;BME280;1994;48.640;8.894;2023-04-24T09:12:56;95442.03;;;16.38;48.27
3960;BME280;1994;48.640;8.894;2023-04-24T09:15:24;95444.44;;;16.53;48.81
3960;BME280;1994;48.640;8.894;2023-04-24T09:17:51;95458.31;;;16.35;45.27
3960;BME280;1994;48.640;8.894;2023-04-24T09:20:17;95451.44;;;15.65;46.92
3960;BME280;1994;48.640;8.894;2023-04-24T09:22:43;95455.31;;;15.49;46.90
3960;BME280;1994;48.640;8.894;2023-04-24T09:25:10;95454.50;;;16.09;46.01
3960;BME280;1994;48.640;8.894;2023-04-24T09:27:45;95464.06;;;16.69;46.13
3960;BME280;1994;48.640;8.894;2023-04-24T09:30:11;95465.81;;;16.87;47.08
3960;BME280;1994;48.640;8.894;2023-04-24T09:32:37;95452.88;;;17.76;44.75
3960;BME280;1994;48.640;8.894;2023-04-24T09:35:13;95459.13;;;17.53;43.16
3960;BME280;1994;48.640;8.894;2023-04-24T09:37:45;95468.44;;;16.55;44.15
3960;BME280;1994;48.640;8.894;2023-04-24T09:40:19;95481.53;;;15.81;45.99
3960;BME280;1994;48.640;8.894;2023-04-24T09:42:56;95488.25;;;16.24;45.95
3960;BME280;1994;48.640;8.894;2023-04-24T09:45:35;95491.22;;;16.36;44.77
3960;BME280;1994;48.640;8.894;2023-04-24T09:48:01;95490.09;;;16.42;44.25
3960;BME280;1994;48.640;8.894;2023-04-24T09:50:31;95479.34;;;16.25;46.19
3960;BME280;1994;48.640;8.894;2023-04-24T09:53:04;95489.94;;;15.96;45.69
3960;BME280;1994;48.640;8.894;2023-04-24T09:55:30;95488.09;;;15.78;46.55
3960;BME280;1994;48.640;8.894;2023-04-24T09:57:58;95499.41;;;16.11;46.03
3960;BME280;1994;48.640;8.894;2023-04-24T10:00:30;95501.13;;;16.39;44.59
3960;BME280;1994;48.640;8.894;2023-04-24T10:03:04;95502.69;;;16.40;45.23
3960;BME280;1994;48.640;8.894;2023-04-24T10:05:36;95508.06;;;16.80;45.84
3960;BME280;1994;48.640;8.894;2023-04-24T10:08:06;95503.53;;;14.99;47.22
3960;BME280;1994;48.640;8.894;2023-04-24T10:10:34;95505.28;;;15.37;48.57
3960;BME280;1994;48.640;8.894;2023-04-24T10:13:01;95509.69;;;15.42;46.93
3960;BME280;1994;48.640;8.894;2023-04-24T10:15:27;95513.66;;;15.06;48.70
3960;BME280;1994;48.640;8.894;2023-04-24T10:17:53;95523.56;;;15.09;49.24
3960;BME280;1994;48.640;8.894;2023-04-24T10:20:25;95518.75;;;14.59;50.62
3960;BME280;1994;48.640;8.894;2023-04-24T10:22:53;95526.91;;;14.81;51.20
3960;BME280;1994;48.640;8.894;2023-04-24T10:25:22;95530.69;;;15.27;50.99
3960;BME280;1994;48.640;8.894;2023-04-24T10:27:50;95522.84;;;14.98;49.23
3960;BME280;1994;48.640;8.894;2023-04-24T10:30:19;95522.28;;;14.78;50.44
3960;BME280;1994;48.640;8.894;2023-04-24T10:32:45;95546.22;;;14.80;50.71
3960;BME280;1994;48.640;8.894;2023-04-24T10:35:15;95539.84;;;14.24;53.91
3960;BME280;1994;48.640;8.894;2023-04-24T10:37:48;95543.91;;;13.13;55.90
3960;BME280;1994;48.640;8.894;2023-04-24T10:40:19;95548.28;;;12.47;56.53
3960;BME280;1994;48.640;8.894;2023-04-24T10:42:52;95543.09;;;12.92;56.91
3960;BME280;1994;48.640;8.894;2023-04-24T10:45:23;95545.44;;;13.09;57.72
3960;BME280;1994;48.640;8.894;2023-04-24T10:48:05;95546.44;;;13.23;56.27
3960;BME280;1994;48.640;8.894;2023-04-24T10:50:58;95542.06;;;12.78;57.15
3960;BME280;1994;48.640;8.894;2023-04-24T10:53:29;95545.19;;;13.15;56.71
3960;BME280;1994;48.640;8.894;2023-04-24T10:56:08;95542.31;;;13.17;58.00
3960;BME280;1994;48.640;8.894;2023-04-24T10:58:40;95541.53;;;14.00;56.25
3960;BME280;1994;48.640;8.894;2023-04-24T11:01:06;95535.78;;;13.19;57.40
3960;BME280;1994;48.640;8.894;2023-04-24T11:03:34;95548.50;;;13.41;58.23
3960;BME280;1994;48.640;8.894;2023-04-24T11:06:08;95549.84;;;14.02;55.77
3960;BME280;1994;48.640;8.894;2023-04-24T11:08:48;95548.72;;;14.18;55.34
3960;BME280;1994;48.640;8.894;2023-04-24T11:11:17;95549.00;;;13.53;56.12
3960;BME280;1994;48.640;8.894;2023-04-24T11:21:44;95562.03;;;13.43;55.58
3960;BME280;1994;48.640;8.894;2023-04-24T11:24:31;95579.75;;;13.31;56.59
3960;BME280;1994;48.640;8.894;2023-04-24T11:27:06;95565.31;;;13.68;55.60
3960;BME280;1994;48.640;8.894;2023-04-24T11:32:41;95580.31;;;13.08;56.52
3960;BME280;1994;48.640;8.894;2023-04-24T11:35:20;95572.44;;;12.63;59.80
3960;BME280;1994;48.640;8.894;2023-04-24T11:37:50;95577.38;;;13.39;57.86
3960;BME280;1994;48.640;8.894;2023-04-24T11:40:19;95567.69;;;14.28;58.92
3960;BME280;1994;48.640;8.894;2023-04-24T11:42:50;95577.59;;;14.26;55.39
3960;BME280;1994;48.640;8.894;2023-04-24T11:45:24;95577.44;;;14.90;53.45
3960;BME280;1994;48.640;8.894;2023-04-24T11:47:51;95578.09;;;14.72;53.31
3960;BME280;1994;48.640;8.894;2023-04-24T11:50:20;95584.19;;;14.04;55.43
3960;BME280;1994;48.640;8.894;2023-04-24T11:52:48;95587.44;;;13.76;57.46
3960;BME280;1994;48.640;8.894;2023-04-24T11:57:43;95590.56;;;12.23;60.40
3960;BME280;1994;48.640;8.894;2023-04-24T12:00:29;95595.47;;;12.14;60.25
3960;BME280;1994;48.640;8.894;2023-04-24T12:03:08;95593.59;;;11.90;62.09
3960;BME280;1994;48.640;8.894;2023-04-24T12:05:40;95596.28;;;12.15;60.81
3960;BME280;1994;48.640;8.894;2023-04-24T12:08:06;95595.25;;;12.36;59.52
3960;BME280;1994;48.640;8.894;2023-04-24T12:10:33;95598.34;;;12.18;59.40
3960;BME280;1994;48.640;8.894;2023-04-24T12:13:00;95592.50;;;12.72;58.40
3960;BME280;1994;48.640;8.894;2023-04-24T12:15:27;95599.00;;;12.80;59.07
3960;BME280;1994;48.640;8.894;2023-04-24T12:17:54;95607.81;;;12.64;59.35
3960;BME280;1994;48.640;8.894;2023-04-24T12:20:30;95605.81;;;11.99;63.46
3960;BME280;1994;48.640;8.894;2023-04-24T12:22:58;95603.03;;;12.16;63.02
3960;BME280;1994;48.640;8.894;2023-04-24T12:25:34;95600.53;;;11.74;63.99
3960;BME280;1994;48.640;8.894;2023-04-24T12:30:30;95609.50;;;12.13;62.89
3960;BME280;1994;48.640;8.894;2023-04-24T12:32:58;95607.81;;;12.79;62.69
3960;BME280;1994;48.640;8.894;2023-04-24T12:35:30;95607.25;;;12.52;63.29
3960;BME280;1994;48.640;8.894;2023-04-24T12:38:09;95608.84;;;12.88;61.94
3960;BME280;1994;48.640;8.894;2023-04-24T12:40:36;95610.41;;;12.64;60.51
3960;BME280;1994;48.640;8.894;2023-04-24T12:43:18;95594.06;;;11.77;62.06
3960;BME280;1994;48.640;8.894;2023-04-24T12:45:44;95604.78;;;12.00;63.33
3960;BME280;1994;48.640;8.894;2023-04-24T12:48:11;95601.47;;;12.15;63.09
3960;BME280;1994;48.640;8.894;2023-04-24T12:50:37;95603.13;;;12.66;60.24
3960;BME280;1994;48.640;8.894;2023-04-24T12:53:03;95600.50;;;12.51;60.45
3960;BME280;1994;48.640;8.894;2023-04-24T12:55:29;95601.03;;;12.48;60.16
3960;BME280;1994;48.640;8.894;2023-04-24T12:57:55;95603.63;;;12.63;59.41
3960;BME280;1994;48.640;8.894;2023-04-24T13:00:21;95607.81;;;12.84;59.34
3960;BME280;1994;48.640;8.894;2023-04-24T13:02:47;95605.94;;;12.34;59.02
3960;BME280;1994;48.640;8.894;2023-04-24T13:05:13;95603.09;;;12.56;59.40
3960;BME280;1994;48.640;8.894;2023-04-24T13:07:39;95606.13;;;12.18;60.70
3960;BME280;1994;48.640;8.894;2023-04-24T13:10:06;95612.31;;;12.02;61.42
3960;BME280;1994;48.640;8.894;2023-04-24T13:12:35;95608.81;;;11.71;61.79
3960;BME280;1994;48.640;8.894;2023-04-24T13:15:01;95607.94;;;11.56;62.80
3960;BME280;1994;48.640;8.894;2023-04-24T13:17:27;95609.69;;;11.97;61.33
3960;BME280;1994;48.640;8.894;2023-04-24T13:19:54;95602.50;;;12.19;60.50
3960;BME280;1994;48.640;8.894;2023-04-24T13:22:20;95608.66;;;12.03;60.84
3960;BME280;1994;48.640;8.894;2023-04-24T13:24:47;95602.97;;;12.06;60.57
3960;BME280;1994;48.640;8.894;2023-04-24T13:27:15;95609.03;;;12.36;59.59
3960;BME280;1994;48.640;8.894;2023-04-24T13:29:41;95612.44;;;12.42;59.51
3960;BME280;1994;48.640;8.894;2023-04-24T13:32:09;95609.84;;;12.57;59.14
3960;BME280;1994;48.640;8.894;2023-04-24T13:34:35;95606.47;;;12.46;58.47
3960;BME280;1994;48.640;8.894;2023-04-24T13:37:03;95604.66;;;12.52;58.82
3960;BME280;1994;48.640;8.894;2023-04-24T13:39:29;95609.84;;;12.57;58.89